sensor_id;sensor_type;location;lat;lon;timestamp;P1;durP1;ratioP1;P2;durP2;ratioP2
72761;SDS011;60886;55.034;73.150;2023-12-20T00:01:35;15.98;;;2.83;;
72761;SDS011;60886;55.034;73.150;2023-12-20T00:04:36;8.80;;;2.87;;
72761;SDS011;60886;55.034;73.150;2023-12-20T00:07:38;7.20;;;2.07;;
72761;SDS011;60886;55.034;73.150;2023-12-20T00:10:41;10.00;;;2.80;;
72761;SDS011;60886;55.034;73.150;2023-12-20T00:13:42;9.43;;;2.58;;
72761;SDS011;60886;55.034;73.150;2023-12-20T00:16:52;10.51;;;2.97;;
72761;SDS011;60886;55.034;73.150;2023-12-20T00:19:54;9.30;;;2.85;;
72761;SDS011;60886;55.034;73.150;2023-12-20T00:22:56;10.03;;;2.83;;
72761;SDS011;60886;55.034;73.150;2023-12-20T00:25:58;11.32;;;2.58;;
72761;SDS011;60886;55.034;73.150;2023-12-20T00:29:00;11.77;;;3.17;;
72761;SDS011;60886;55.034;73.150;2023-12-20T00:32:01;9.90;;;2.57;;
72761;SDS011;60886;55.034;73.150;2023-12-20T00:35:03;12.35;;;3.08;;
72761;SDS011;60886;55.034;73.150;2023-12-20T00:38:05;16.87;;;5.50;;
72761;SDS011;60886;55.034;73.150;2023-12-20T00:41:08;15.10;;;4.00;;
72761;SDS011;60886;55.034;73.150;2023-12-20T00:44:09;13.70;;;4.65;;
72761;SDS011;60886;55.034;73.150;2023-12-20T00:47:11;14.20;;;5.17;;
72761;SDS011;60886;55.034;73.150;2023-12-20T00:50:12;13.90;;;3.90;;
72761;SDS011;60886;55.034;73.150;2023-12-20T00:53:14;17.00;;;4.63;;
72761;SDS011;60886;55.034;73.150;2023-12-20T00:56:15;12.23;;;4.15;;
72761;SDS011;60886;55.034;73.150;2023-12-20T00:59:17;18.07;;;4.97;;
72761;SDS011;60886;55.034;73.150;2023-12-20T01:02:19;20.75;;;5.00;;
72761;SDS011;60886;55.034;73.150;2023-12-20T01:05:20;17.20;;;4.30;;
72761;SDS011;60886;55.034;73.150;2023-12-20T01:08:25;18.40;;;5.63;;
72761;SDS011;60886;55.034;73.150;2023-12-20T01:11:26;21.52;;;5.15;;
72761;SDS011;60886;55.034;73.150;2023-12-20T01:14:28;14.83;;;5.17;;
72761;SDS011;60886;55.034;73.150;2023-12-20T01:17:29;16.20;;;5.00;;
72761;SDS011;60886;55.034;73.150;2023-12-20T01:20:31;20.13;;;4.53;;
72761;SDS011;60886;55.034;73.150;2023-12-20T01:23:32;12.90;;;4.70;;
72761;SDS011;60886;55.034;73.150;2023-12-20T01:26:34;18.75;;;6.25;;
72761;SDS011;60886;55.034;73.150;2023-12-20T01:29:35;22.23;;;6.13;;
72761;SDS011;60886;55.034;73.150;2023-12-20T01:32:37;23.13;;;5.73;;
72761;SDS011;60886;55.034;73.150;2023-12-20T01:35:38;22.67;;;5.57;;
72761;SDS011;60886;55.034;73.150;2023-12-20T01:38:40;12.17;;;3.93;;
72761;SDS011;60886;55.034;73.150;2023-12-20T01:41:41;20.77;;;5.72;;
72761;SDS011;60886;55.034;73.150;2023-12-20T01:44:43;24.50;;;5.75;;
72761;SDS011;60886;55.034;73.150;2023-12-20T01:47:44;24.70;;;6.07;;
72761;SDS011;60886;55.034;73.150;2023-12-20T01:50:46;15.55;;;4.53;;
72761;SDS011;60886;55.034;73.150;2023-12-20T01:53:47;22.10;;;5.83;;
72761;SDS011;60886;55.034;73.150;2023-12-20T01:56:52;14.20;;;4.15;;
72761;SDS011;60886;55.034;73.150;2023-12-20T01:59:54;26.92;;;6.03;;
72761;SDS011;60886;55.034;73.150;2023-12-20T02:02:57;19.33;;;4.03;;
72761;SDS011;60886;55.034;73.150;2023-12-20T02:06:04;22.15;;;5.15;;
72761;SDS011;60886;55.034;73.150;2023-12-20T02:09:06;22.60;;;4.97;;
72761;SDS011;60886;55.034;73.150;2023-12-20T02:12:08;15.73;;;6.10;;
72761;SDS011;60886;55.034;73.150;2023-12-20T02:15:11;12.35;;;3.95;;
72761;SDS011;60886;55.034;73.150;2023-12-20T02:18:13;17.55;;;4.80;;
72761;SDS011;60886;55.034;73.150;2023-12-20T02:21:17;16.83;;;5.37;;
72761;SDS011;60886;55.034;73.150;2023-12-20T02:24:18;22.15;;;5.97;;
72761;SDS011;60886;55.034;73.150;2023-12-20T02:27:20;16.02;;;4.60;;
72761;SDS011;60886;55.034;73.150;2023-12-20T02:30:23;19.50;;;5.20;;
72761;SDS011;60886;55.034;73.150;2023-12-20T02:33:24;18.38;;;4.65;;
72761;SDS011;60886;55.034;73.150;2023-12-20T02:36:26;14.50;;;4.35;;
72761;SDS011;60886;55.034;73.150;2023-12-20T02:39:27;24.13;;;3.90;;
72761;SDS011;60886;55.034;73.150;2023-12-20T02:42:29;23.70;;;5.38;;
72761;SDS011;60886;55.034;73.150;2023-12-20T02:45:30;11.18;;;4.00;;
72761;SDS011;60886;55.034;73.150;2023-12-20T02:48:32;18.08;;;5.30;;
72761;SDS011;60886;55.034;73.150;2023-12-20T02:51:33;14.32;;;5.20;;
72761;SDS011;60886;55.034;73.150;2023-12-20T02:54:35;15.10;;;4.27;;
72761;SDS011;60886;55.034;73.150;2023-12-20T02:57:36;13.53;;;4.80;;
72761;SDS011;60886;55.034;73.150;2023-12-20T03:00:42;14.88;;;5.10;;
72761;SDS011;60886;55.034;73.150;2023-12-20T03:03:44;18.37;;;5.20;;
72761;SDS011;60886;55.034;73.150;2023-12-20T03:06:52;20.22;;;5.73;;
72761;SDS011;60886;55.034;73.150;2023-12-20T03:09:54;15.47;;;4.67;;
72761;SDS011;60886;55.034;73.150;2023-12-20T03:12:56;17.33;;;6.55;;
72761;SDS011;60886;55.034;73.150;2023-12-20T03:15:57;13.03;;;4.63;;
72761;SDS011;60886;55.034;73.150;2023-12-20T03:18:59;15.50;;;5.50;;
72761;SDS011;60886;55.034;73.150;2023-12-20T03:22:03;13.63;;;5.67;;
72761;SDS011;60886;55.034;73.150;2023-12-20T03:25:05;12.87;;;4.37;;
72761;SDS011;60886;55.034;73.150;2023-12-20T03:28:07;12.70;;;4.17;;
72761;SDS011;60886;55.034;73.150;2023-12-20T03:31:09;13.88;;;4.90;;
72761;SDS011;60886;55.034;73.150;2023-12-20T03:34:11;16.23;;;4.57;;
72761;SDS011;60886;55.034;73.150;2023-12-20T03:37:12;17.33;;;3.73;;
72761;SDS011;60886;55.034;73.150;2023-12-20T03:40:14;12.77;;;4.45;;
72761;SDS011;60886;55.034;73.150;2023-12-20T03:43:16;14.40;;;4.47;;
72761;SDS011;60886;55.034;73.150;2023-12-20T03:46:18;16.55;;;4.13;;
72761;SDS011;60886;55.034;73.150;2023-12-20T03:49:19;16.23;;;4.37;;
72761;SDS011;60886;55.034;73.150;2023-12-20T03:52:21;15.95;;;5.15;;
72761;SDS011;60886;55.034;73.150;2023-12-20T03:55:22;17.30;;;5.10;;
72761;SDS011;60886;55.034;73.150;2023-12-20T03:58:24;13.45;;;5.18;;
72761;SDS011;60886;55.034;73.150;2023-12-20T04:01:25;18.07;;;4.97;;
72761;SDS011;60886;55.034;73.150;2023-12-20T04:04:26;17.75;;;5.30;;
72761;SDS011;60886;55.034;73.150;2023-12-20T04:07:28;12.70;;;4.70;;
72761;SDS011;60886;55.034;73.150;2023-12-20T04:10:30;17.17;;;4.72;;
72761;SDS011;60886;55.034;73.150;2023-12-20T04:13:32;12.55;;;3.70;;
72761;SDS011;60886;55.034;73.150;2023-12-20T04:16:34;13.80;;;3.83;;
72761;SDS011;60886;55.034;73.150;2023-12-20T04:19:35;18.77;;;4.40;;
72761;SDS011;60886;55.034;73.150;2023-12-20T04:22:37;11.73;;;3.95;;
72761;SDS011;60886;55.034;73.150;2023-12-20T04:25:39;13.63;;;4.65;;
72761;SDS011;60886;55.034;73.150;2023-12-20T04:28:40;7.93;;;3.35;;
72761;SDS011;60886;55.034;73.150;2023-12-20T04:31:41;12.03;;;3.20;;
72761;SDS011;60886;55.034;73.150;2023-12-20T04:34:43;9.95;;;3.03;;
72761;SDS011;60886;55.034;73.150;2023-12-20T04:37:45;10.03;;;3.50;;
72761;SDS011;60886;55.034;73.150;2023-12-20T04:40:46;12.90;;;4.30;;
72761;SDS011;60886;55.034;73.150;2023-12-20T04:43:49;12.65;;;3.47;;
72761;SDS011;60886;55.034;73.150;2023-12-20T04:46:52;16.25;;;4.20;;
72761;SDS011;60886;55.034;73.150;2023-12-20T04:49:54;17.92;;;4.80;;
72761;SDS011;60886;55.034;73.150;2023-12-20T04:52:55;12.03;;;3.93;;
72761;SDS011;60886;55.034;73.150;2023-12-20T04:55:57;13.20;;;4.67;;
72761;SDS011;60886;55.034;73.150;2023-12-20T04:58:58;12.20;;;4.13;;
72761;SDS011;60886;55.034;73.150;2023-12-20T05:02:00;12.70;;;4.28;;
72761;SDS011;60886;55.034;73.150;2023-12-20T05:05:01;12.52;;;3.40;;
72761;SDS011;60886;55.034;73.150;2023-12-20T05:08:04;12.63;;;3.30;;
72761;SDS011;60886;55.034;73.150;2023-12-20T05:11:06;10.48;;;3.55;;
72761;SDS011;60886;55.034;73.150;2023-12-20T05:14:08;12.13;;;3.73;;
72761;SDS011;60886;55.034;73.150;2023-12-20T05:17:09;13.47;;;2.67;;
72761;SDS011;60886;55.034;73.150;2023-12-20T05:20:11;11.25;;;2.83;;
72761;SDS011;60886;55.034;73.150;2023-12-20T05:23:12;7.60;;;3.15;;
72761;SDS011;60886;55.034;73.150;2023-12-20T05:26:14;9.27;;;2.97;;
72761;SDS011;60886;55.034;73.150;2023-12-20T05:29:16;8.85;;;2.53;;
72761;SDS011;60886;55.034;73.150;2023-12-20T05:32:17;11.27;;;3.43;;
72761;SDS011;60886;55.034;73.150;2023-12-20T05:35:19;8.85;;;2.78;;
72761;SDS011;60886;55.034;73.150;2023-12-20T05:38:21;9.70;;;2.95;;
72761;SDS011;60886;55.034;73.150;2023-12-20T05:41:22;14.20;;;4.33;;
72761;SDS011;60886;55.034;73.150;2023-12-20T05:44:24;15.02;;;4.70;;
72761;SDS011;60886;55.034;73.150;2023-12-20T05:47:25;11.33;;;3.87;;
72761;SDS011;60886;55.034;73.150;2023-12-20T05:50:27;12.70;;;3.75;;
72761;SDS011;60886;55.034;73.150;2023-12-20T05:53:28;10.88;;;3.45;;
72761;SDS011;60886;55.034;73.150;2023-12-20T05:56:29;13.77;;;3.92;;
72761;SDS011;60886;55.034;73.150;2023-12-20T05:59:31;10.10;;;4.03;;
72761;SDS011;60886;55.034;73.150;2023-12-20T06:02:32;13.90;;;4.00;;
72761;SDS011;60886;55.034;73.150;2023-12-20T06:05:34;13.40;;;3.35;;
72761;SDS011;60886;55.034;73.150;2023-12-20T06:08:36;13.27;;;3.77;;
72761;SDS011;60886;55.034;73.150;2023-12-20T06:11:37;13.45;;;3.63;;
72761;SDS011;60886;55.034;73.150;2023-12-20T06:14:39;13.60;;;3.87;;
72761;SDS011;60886;55.034;73.150;2023-12-20T06:17:40;14.77;;;3.97;;
72761;SDS011;60886;55.034;73.150;2023-12-20T06:20:42;10.73;;;3.37;;
72761;SDS011;60886;55.034;73.150;2023-12-20T06:23:43;14.60;;;4.10;;
72761;SDS011;60886;55.034;73.150;2023-12-20T06:26:52;15.75;;;4.60;;
72761;SDS011;60886;55.034;73.150;2023-12-20T06:29:54;12.00;;;3.92;;
72761;SDS011;60886;55.034;73.150;2023-12-20T06:32:55;11.57;;;4.32;;
72761;SDS011;60886;55.034;73.150;2023-12-20T06:35:58;12.23;;;3.55;;
72761;SDS011;60886;55.034;73.150;2023-12-20T06:39:00;11.55;;;4.35;;
72761;SDS011;60886;55.034;73.150;2023-12-20T06:42:01;16.50;;;4.23;;
72761;SDS011;60886;55.034;73.150;2023-12-20T06:45:03;13.77;;;4.55;;
72761;SDS011;60886;55.034;73.150;2023-12-20T06:48:06;16.85;;;4.75;;
72761;SDS011;60886;55.034;73.150;2023-12-20T06:51:10;18.27;;;5.03;;
72761;SDS011;60886;55.034;73.150;2023-12-20T06:54:13;19.65;;;5.00;;
72761;SDS011;60886;55.034;73.150;2023-12-20T06:57:15;19.77;;;5.43;;
72761;SDS011;60886;55.034;73.150;2023-12-20T07:00:17;13.10;;;4.03;;
72761;SDS011;60886;55.034;73.150;2023-12-20T07:03:20;14.73;;;4.40;;
72761;SDS011;60886;55.034;73.150;2023-12-20T07:06:22;13.47;;;3.40;;
72761;SDS011;60886;55.034;73.150;2023-12-20T07:09:23;13.07;;;4.13;;
72761;SDS011;60886;55.034;73.150;2023-12-20T07:12:25;10.87;;;4.23;;
72761;SDS011;60886;55.034;73.150;2023-12-20T07:15:27;14.75;;;4.05;;
72761;SDS011;60886;55.034;73.150;2023-12-20T07:18:30;17.70;;;4.93;;
72761;SDS011;60886;55.034;73.150;2023-12-20T07:21:32;18.77;;;4.82;;
72761;SDS011;60886;55.034;73.150;2023-12-20T07:24:33;13.48;;;4.53;;
72761;SDS011;60886;55.034;73.150;2023-12-20T07:27:35;13.13;;;4.10;;
72761;SDS011;60886;55.034;73.150;2023-12-20T07:30:37;10.23;;;3.20;;
72761;SDS011;60886;55.034;73.150;2023-12-20T07:33:38;12.83;;;4.43;;
72761;SDS011;60886;55.034;73.150;2023-12-20T07:36:40;14.83;;;4.93;;
72761;SDS011;60886;55.034;73.150;2023-12-20T07:39:41;9.40;;;3.85;;
72761;SDS011;60886;55.034;73.150;2023-12-20T07:42:43;12.57;;;4.20;;
72761;SDS011;60886;55.034;73.150;2023-12-20T07:45:45;10.38;;;3.42;;
72761;SDS011;60886;55.034;73.150;2023-12-20T07:48:46;15.27;;;3.53;;
72761;SDS011;60886;55.034;73.150;2023-12-20T07:51:52;12.40;;;3.58;;
72761;SDS011;60886;55.034;73.150;2023-12-20T07:54:54;13.18;;;3.90;;
72761;SDS011;60886;55.034;73.150;2023-12-20T07:57:55;11.53;;;3.70;;
72761;SDS011;60886;55.034;73.150;2023-12-20T08:00:57;13.07;;;3.97;;
72761;SDS011;60886;55.034;73.150;2023-12-20T08:03:58;9.80;;;3.37;;
72761;SDS011;60886;55.034;73.150;2023-12-20T08:07:00;11.30;;;3.50;;
72761;SDS011;60886;55.034;73.150;2023-12-20T08:10:01;16.65;;;4.50;;
72761;SDS011;60886;55.034;73.150;2023-12-20T08:13:04;11.60;;;4.20;;
72761;SDS011;60886;55.034;73.150;2023-12-20T08:16:06;17.63;;;4.30;;
72761;SDS011;60886;55.034;73.150;2023-12-20T08:19:08;12.27;;;4.13;;
72761;SDS011;60886;55.034;73.150;2023-12-20T08:22:09;11.33;;;3.50;;
72761;SDS011;60886;55.034;73.150;2023-12-20T08:25:10;12.00;;;4.32;;
72761;SDS011;60886;55.034;73.150;2023-12-20T08:28:12;11.07;;;3.43;;
72761;SDS011;60886;55.034;73.150;2023-12-20T08:31:17;13.82;;;4.35;;
72761;SDS011;60886;55.034;73.150;2023-12-20T08:34:19;17.70;;;4.27;;
72761;SDS011;60886;55.034;73.150;2023-12-20T08:37:20;10.98;;;3.70;;
72761;SDS011;60886;55.034;73.150;2023-12-20T08:40:22;9.48;;;3.28;;
72761;SDS011;60886;55.034;73.150;2023-12-20T08:43:24;10.60;;;3.73;;
72761;SDS011;60886;55.034;73.150;2023-12-20T08:46:25;13.38;;;4.38;;
72761;SDS011;60886;55.034;73.150;2023-12-20T08:49:27;12.52;;;3.63;;
72761;SDS011;60886;55.034;73.150;2023-12-20T08:52:28;11.40;;;3.63;;
72761;SDS011;60886;55.034;73.150;2023-12-20T08:55:30;14.57;;;3.78;;
72761;SDS011;60886;55.034;73.150;2023-12-20T08:58:32;12.25;;;4.00;;
72761;SDS011;60886;55.034;73.150;2023-12-20T09:01:34;12.77;;;3.80;;
72761;SDS011;60886;55.034;73.150;2023-12-20T09:04:35;20.52;;;4.80;;
72761;SDS011;60886;55.034;73.150;2023-12-20T09:07:37;12.20;;;3.70;;
72761;SDS011;60886;55.034;73.150;2023-12-20T09:10:39;12.90;;;3.95;;
72761;SDS011;60886;55.034;73.150;2023-12-20T09:13:40;11.83;;;3.70;;
72761;SDS011;60886;55.034;73.150;2023-12-20T09:16:41;12.50;;;3.70;;
72761;SDS011;60886;55.034;73.150;2023-12-20T09:19:43;12.57;;;3.95;;
72761;SDS011;60886;55.034;73.150;2023-12-20T09:22:45;10.73;;;3.30;;
72761;SDS011;60886;55.034;73.150;2023-12-20T09:25:47;11.18;;;3.40;;
72761;SDS011;60886;55.034;73.150;2023-12-20T09:28:48;12.60;;;4.03;;
72761;SDS011;60886;55.034;73.150;2023-12-20T09:31:52;13.40;;;3.67;;
72761;SDS011;60886;55.034;73.150;2023-12-20T09:34:54;14.98;;;4.03;;
72761;SDS011;60886;55.034;73.150;2023-12-20T09:37:55;14.37;;;4.30;;
72761;SDS011;60886;55.034;73.150;2023-12-20T09:40:57;11.70;;;3.65;;
72761;SDS011;60886;55.034;73.150;2023-12-20T09:43:58;12.33;;;4.00;;
72761;SDS011;60886;55.034;73.150;2023-12-20T09:47:03;12.67;;;2.70;;
72761;SDS011;60886;55.034;73.150;2023-12-20T09:50:06;9.43;;;2.97;;
72761;SDS011;60886;55.034;73.150;2023-12-20T09:53:08;12.10;;;3.85;;
72761;SDS011;60886;55.034;73.150;2023-12-20T09:56:12;9.68;;;3.85;;
72761;SDS011;60886;55.034;73.150;2023-12-20T09:59:14;9.82;;;2.80;;
72761;SDS011;60886;55.034;73.150;2023-12-20T10:02:16;12.82;;;4.50;;
72761;SDS011;60886;55.034;73.150;2023-12-20T10:05:24;15.87;;;4.87;;
72761;SDS011;60886;55.034;73.150;2023-12-20T10:08:54;19.85;;;5.15;;
72761;SDS011;60886;55.034;73.150;2023-12-20T10:11:55;15.86;;;4.81;;
72761;SDS011;60886;55.034;73.150;2023-12-20T10:14:58;14.43;;;4.37;;
72761;SDS011;60886;55.034;73.150;2023-12-20T10:18:01;16.00;;;4.65;;
72761;SDS011;60886;55.034;73.150;2023-12-20T10:21:03;14.63;;;4.83;;
72761;SDS011;60886;55.034;73.150;2023-12-20T10:24:05;15.30;;;4.30;;
72761;SDS011;60886;55.034;73.150;2023-12-20T10:27:07;14.32;;;3.80;;
72761;SDS011;60886;55.034;73.150;2023-12-20T10:30:09;10.35;;;2.92;;
72761;SDS011;60886;55.034;73.150;2023-12-20T10:33:11;12.23;;;3.77;;
72761;SDS011;60886;55.034;73.150;2023-12-20T10:36:13;10.50;;;3.42;;
72761;SDS011;60886;55.034;73.150;2023-12-20T10:39:14;9.90;;;3.60;;
72761;SDS011;60886;55.034;73.150;2023-12-20T10:42:21;13.00;;;3.67;;
72761;SDS011;60886;55.034;73.150;2023-12-20T10:45:29;12.40;;;3.55;;
72761;SDS011;60886;55.034;73.150;2023-12-20T10:48:31;14.90;;;4.28;;
72761;SDS011;60886;55.034;73.150;2023-12-20T10:51:33;15.43;;;4.10;;
72761;SDS011;60886;55.034;73.150;2023-12-20T10:54:37;13.35;;;3.47;;
72761;SDS011;60886;55.034;73.150;2023-12-20T10:57:40;13.90;;;4.20;;
72761;SDS011;60886;55.034;73.150;2023-12-20T11:00:43;10.75;;;3.00;;
72761;SDS011;60886;55.034;73.150;2023-12-20T11:03:50;15.13;;;4.13;;
72761;SDS011;60886;55.034;73.150;2023-12-20T11:06:54;13.68;;;4.05;;
72761;SDS011;60886;55.034;73.150;2023-12-20T11:10:15;11.98;;;3.33;;
72761;SDS011;60886;55.034;73.150;2023-12-20T11:13:22;9.87;;;3.10;;
72761;SDS011;60886;55.034;73.150;2023-12-20T11:16:27;10.80;;;3.63;;
72761;SDS011;60886;55.034;73.150;2023-12-20T11:19:29;11.87;;;3.07;;
72761;SDS011;60886;55.034;73.150;2023-12-20T11:22:31;13.02;;;3.85;;
72761;SDS011;60886;55.034;73.150;2023-12-20T11:25:54;12.17;;;3.80;;
72761;SDS011;60886;55.034;73.150;2023-12-20T11:32:40;7.43;;;2.53;;
72761;SDS011;60886;55.034;73.150;2023-12-20T11:35:42;12.50;;;3.00;;
72761;SDS011;60886;55.034;73.150;2023-12-20T11:38:54;9.73;;;2.87;;
72761;SDS011;60886;55.034;73.150;2023-12-20T11:42:03;11.20;;;3.40;;
72761;SDS011;60886;55.034;73.150;2023-12-20T11:45:16;9.57;;;3.17;;
72761;SDS011;60886;55.034;73.150;2023-12-20T11:48:20;11.53;;;3.30;;
72761;SDS011;60886;55.034;73.150;2023-12-20T11:51:23;9.23;;;2.90;;
72761;SDS011;60886;55.034;73.150;2023-12-20T11:54:25;12.70;;;3.67;;
72761;SDS011;60886;55.034;73.150;2023-12-20T11:57:26;10.50;;;3.70;;
72761;SDS011;60886;55.034;73.150;2023-12-20T12:00:28;10.63;;;3.72;;
72761;SDS011;60886;55.034;73.150;2023-12-20T12:03:30;11.73;;;3.47;;
72761;SDS011;60886;55.034;73.150;2023-12-20T12:06:32;17.70;;;4.70;;
72761;SDS011;60886;55.034;73.150;2023-12-20T12:09:34;11.13;;;3.22;;
72761;SDS011;60886;55.034;73.150;2023-12-20T12:12:36;9.50;;;3.83;;
72761;SDS011;60886;55.034;73.150;2023-12-20T12:15:37;10.10;;;3.20;;
72761;SDS011;60886;55.034;73.150;2023-12-20T12:18:39;15.03;;;4.23;;
72761;SDS011;60886;55.034;73.150;2023-12-20T12:22:08;11.17;;;2.97;;
72761;SDS011;60886;55.034;73.150;2023-12-20T12:25:17;11.20;;;3.35;;
72761;SDS011;60886;55.034;73.150;2023-12-20T12:28:19;10.37;;;3.53;;
72761;SDS011;60886;55.034;73.150;2023-12-20T12:31:21;9.32;;;2.58;;
72761;SDS011;60886;55.034;73.150;2023-12-20T12:34:22;9.43;;;2.80;;
72761;SDS011;60886;55.034;73.150;2023-12-20T12:37:24;10.20;;;3.60;;
72761;SDS011;60886;55.034;73.150;2023-12-20T12:40:27;13.88;;;3.75;;
72761;SDS011;60886;55.034;73.150;2023-12-20T12:43:29;15.57;;;3.57;;
72761;SDS011;60886;55.034;73.150;2023-12-20T12:46:31;11.13;;;2.90;;
72761;SDS011;60886;55.034;73.150;2023-12-20T12:49:33;10.07;;;3.67;;
72761;SDS011;60886;55.034;73.150;2023-12-20T12:52:35;14.53;;;3.10;;
72761;SDS011;60886;55.034;73.150;2023-12-20T12:55:36;9.63;;;3.15;;
72761;SDS011;60886;55.034;73.150;2023-12-20T12:58:38;7.07;;;2.53;;
72761;SDS011;60886;55.034;73.150;2023-12-20T13:01:40;15.60;;;3.95;;
72761;SDS011;60886;55.034;73.150;2023-12-20T13:04:52;10.75;;;3.70;;
72761;SDS011;60886;55.034;73.150;2023-12-20T13:07:54;9.52;;;3.15;;
72761;SDS011;60886;55.034;73.150;2023-12-20T13:10:55;8.60;;;2.95;;
72761;SDS011;60886;55.034;73.150;2023-12-20T13:13:59;10.27;;;3.25;;
72761;SDS011;60886;55.034;73.150;2023-12-20T13:17:01;11.10;;;3.53;;
72761;SDS011;60886;55.034;73.150;2023-12-20T13:20:03;10.27;;;2.97;;
72761;SDS011;60886;55.034;73.150;2023-12-20T13:23:05;12.20;;;3.50;;
72761;SDS011;60886;55.034;73.150;2023-12-20T13:26:07;16.25;;;4.00;;
72761;SDS011;60886;55.034;73.150;2023-12-20T13:29:08;10.93;;;3.53;;
72761;SDS011;60886;55.034;73.150;2023-12-20T13:32:20;13.23;;;3.83;;
72761;SDS011;60886;55.034;73.150;2023-12-20T13:35:23;10.90;;;3.88;;
72761;SDS011;60886;55.034;73.150;2023-12-20T13:38:31;9.25;;;2.60;;
72761;SDS011;60886;55.034;73.150;2023-12-20T13:41:32;11.37;;;3.27;;
72761;SDS011;60886;55.034;73.150;2023-12-20T13:44:34;11.37;;;3.27;;
72761;SDS011;60886;55.034;73.150;2023-12-20T13:47:35;12.10;;;3.67;;
72761;SDS011;60886;55.034;73.150;2023-12-20T13:50:44;9.93;;;3.03;;
72761;SDS011;60886;55.034;73.150;2023-12-20T13:54:05;7.07;;;2.37;;
72761;SDS011;60886;55.034;73.150;2023-12-20T13:57:07;7.35;;;2.08;;
72761;SDS011;60886;55.034;73.150;2023-12-20T14:00:10;9.10;;;3.22;;
72761;SDS011;60886;55.034;73.150;2023-12-20T14:03:15;8.68;;;3.05;;
72761;SDS011;60886;55.034;73.150;2023-12-20T14:06:16;11.93;;;3.43;;
72761;SDS011;60886;55.034;73.150;2023-12-20T14:09:18;12.10;;;3.13;;
72761;SDS011;60886;55.034;73.150;2023-12-20T14:12:20;8.97;;;3.03;;
72761;SDS011;60886;55.034;73.150;2023-12-20T14:15:21;10.77;;;3.22;;
72761;SDS011;60886;55.034;73.150;2023-12-20T14:18:26;11.03;;;3.00;;
72761;SDS011;60886;55.034;73.150;2023-12-20T14:21:27;10.50;;;3.20;;
72761;SDS011;60886;55.034;73.150;2023-12-20T14:24:29;9.43;;;2.50;;
72761;SDS011;60886;55.034;73.150;2023-12-20T14:27:30;9.38;;;2.78;;
72761;SDS011;60886;55.034;73.150;2023-12-20T14:30:32;10.73;;;3.17;;
72761;SDS011;60886;55.034;73.150;2023-12-20T14:33:34;10.07;;;2.83;;
72761;SDS011;60886;55.034;73.150;2023-12-20T14:36:36;11.85;;;4.13;;
72761;SDS011;60886;55.034;73.150;2023-12-20T14:39:38;12.02;;;4.13;;
72761;SDS011;60886;55.034;73.150;2023-12-20T14:42:46;12.63;;;3.00;;
72761;SDS011;60886;55.034;73.150;2023-12-20T14:45:47;11.20;;;2.83;;
72761;SDS011;60886;55.034;73.150;2023-12-20T14:48:49;10.50;;;3.20;;
72761;SDS011;60886;55.034;73.150;2023-12-20T14:51:52;11.85;;;3.58;;
72761;SDS011;60886;55.034;73.150;2023-12-20T14:54:53;13.32;;;3.42;;
72761;SDS011;60886;55.034;73.150;2023-12-20T14:57:54;10.63;;;3.17;;
72761;SDS011;60886;55.034;73.150;2023-12-20T15:00:56;12.68;;;4.05;;
72761;SDS011;60886;55.034;73.150;2023-12-20T15:03:58;13.40;;;3.73;;
72761;SDS011;60886;55.034;73.150;2023-12-20T15:07:02;10.27;;;3.85;;
72761;SDS011;60886;55.034;73.150;2023-12-20T15:10:07;11.52;;;3.58;;
72761;SDS011;60886;55.034;73.150;2023-12-20T15:13:09;16.25;;;4.88;;
72761;SDS011;60886;55.034;73.150;2023-12-20T15:16:10;15.00;;;4.53;;
72761;SDS011;60886;55.034;73.150;2023-12-20T15:19:12;18.17;;;6.20;;
72761;SDS011;60886;55.034;73.150;2023-12-20T15:22:15;14.48;;;4.35;;
72761;SDS011;60886;55.034;73.150;2023-12-20T15:25:16;11.75;;;4.28;;
72761;SDS011;60886;55.034;73.150;2023-12-20T15:28:25;16.40;;;4.15;;
72761;SDS011;60886;55.034;73.150;2023-12-20T15:31:27;14.90;;;3.78;;
72761;SDS011;60886;55.034;73.150;2023-12-20T15:34:29;16.17;;;4.07;;
72761;SDS011;60886;55.034;73.150;2023-12-20T15:37:30;13.20;;;4.18;;
72761;SDS011;60886;55.034;73.150;2023-12-20T15:40:33;12.55;;;4.75;;
72761;SDS011;60886;55.034;73.150;2023-12-20T15:43:34;14.15;;;4.30;;
72761;SDS011;60886;55.034;73.150;2023-12-20T15:46:37;13.48;;;4.03;;
72761;SDS011;60886;55.034;73.150;2023-12-20T15:49:40;10.60;;;3.33;;
72761;SDS011;60886;55.034;73.150;2023-12-20T15:52:41;12.43;;;3.40;;
72761;SDS011;60886;55.034;73.150;2023-12-20T15:55:44;10.65;;;3.83;;
72761;SDS011;60886;55.034;73.150;2023-12-20T15:58:49;8.48;;;2.67;;
72761;SDS011;60886;55.034;73.150;2023-12-20T16:01:52;12.38;;;4.65;;
72761;SDS011;60886;55.034;73.150;2023-12-20T16:05:00;14.30;;;3.08;;
72761;SDS011;60886;55.034;73.150;2023-12-20T16:08:14;7.57;;;1.90;;
72761;SDS011;60886;55.034;73.150;2023-12-20T16:11:18;17.08;;;3.42;;
72761;SDS011;60886;55.034;73.150;2023-12-20T16:14:20;11.30;;;3.47;;
72761;SDS011;60886;55.034;73.150;2023-12-20T16:17:27;8.47;;;2.60;;
72761;SDS011;60886;55.034;73.150;2023-12-20T16:20:28;13.38;;;2.47;;
72761;SDS011;60886;55.034;73.150;2023-12-20T16:23:30;9.43;;;2.65;;
72761;SDS011;60886;55.034;73.150;2023-12-20T16:26:31;8.52;;;2.33;;
72761;SDS011;60886;55.034;73.150;2023-12-20T16:29:33;11.80;;;2.90;;
72761;SDS011;60886;55.034;73.150;2023-12-20T16:32:35;7.27;;;2.10;;
72761;SDS011;60886;55.034;73.150;2023-12-20T16:35:37;11.10;;;2.73;;
72761;SDS011;60886;55.034;73.150;2023-12-20T16:38:38;10.95;;;3.67;;
72761;SDS011;60886;55.034;73.150;2023-12-20T16:41:40;11.73;;;2.80;;
72761;SDS011;60886;55.034;73.150;2023-12-20T16:44:42;9.13;;;2.83;;
72761;SDS011;60886;55.034;73.150;2023-12-20T16:47:44;7.95;;;2.38;;
72761;SDS011;60886;55.034;73.150;2023-12-20T16:50:46;11.15;;;3.90;;
72761;SDS011;60886;55.034;73.150;2023-12-20T16:53:47;11.32;;;3.10;;
72761;SDS011;60886;55.034;73.150;2023-12-20T16:56:51;9.95;;;3.17;;
72761;SDS011;60886;55.034;73.150;2023-12-20T16:59:53;7.57;;;1.70;;
72761;SDS011;60886;55.034;73.150;2023-12-20T17:02:55;8.82;;;2.25;;
72761;SDS011;60886;55.034;73.150;2023-12-20T17:05:58;9.23;;;2.78;;
72761;SDS011;60886;55.034;73.150;2023-12-20T17:08:59;5.07;;;1.55;;
72761;SDS011;60886;55.034;73.150;2023-12-20T17:12:00;5.47;;;1.83;;
72761;SDS011;60886;55.034;73.150;2023-12-20T17:15:02;6.93;;;1.67;;
72761;SDS011;60886;55.034;73.150;2023-12-20T17:18:07;6.50;;;1.90;;
72761;SDS011;60886;55.034;73.150;2023-12-20T17:21:08;7.97;;;2.42;;
72761;SDS011;60886;55.034;73.150;2023-12-20T17:24:10;8.27;;;2.40;;
72761;SDS011;60886;55.034;73.150;2023-12-20T17:27:11;8.13;;;2.07;;
72761;SDS011;60886;55.034;73.150;2023-12-20T17:30:13;6.88;;;2.10;;
72761;SDS011;60886;55.034;73.150;2023-12-20T17:33:15;8.23;;;1.73;;
72761;SDS011;60886;55.034;73.150;2023-12-20T17:36:17;10.38;;;2.92;;
72761;SDS011;60886;55.034;73.150;2023-12-20T17:39:19;8.90;;;2.50;;
72761;SDS011;60886;55.034;73.150;2023-12-20T17:42:21;8.53;;;2.60;;
72761;SDS011;60886;55.034;73.150;2023-12-20T17:45:22;6.80;;;2.00;;
72761;SDS011;60886;55.034;73.150;2023-12-20T17:48:24;4.87;;;1.03;;
72761;SDS011;60886;55.034;73.150;2023-12-20T17:51:26;7.32;;;2.20;;
72761;SDS011;60886;55.034;73.150;2023-12-20T17:54:28;6.43;;;1.77;;